Impacts METAR Board
IDs:

KHUT - Hutchinson Muni, KS, US

Updated at: 1800 UTC 02 Oct 2022
Potential Impact None Slight Moderate High
Time 02/06Z 02/07Z 02/08Z 02/09Z 02/10Z 02/11Z 02/12Z 02/13Z 02/14Z 02/15Z 02/16Z 02/17Z 02/18Z
Temp60 60 57 51 51 50 51 51 58 64 71 77 79
Dewpt38 37 38 38 38 38 38 38 40 41 42 39 38
Altim30.17 30.18 30.19 30.19 30.20 30.21 30.22 30.24 30.25 30.26 30.27 30.27 30.25
VIS10 10 10 10 10 10 10 10 10 10 10 10 10
CIG-- -- -- -- -- -- -- -- -- -- -- -- --
CoverCLRCLRCLRCLRCLRCLRCLRCLRCLRCLRCLRCLRCLR
FltCatVFRVFRVFRVFRVFRVFRVFRVFRVFRVFRVFRVFRVFR
WX--------------------------
WDir110110110110110110110110130150170170190
WSpd8 8 7 6 5 6 6 4 6 6 7 10 8
WGst-- -- -- -- -- -- -- -- -- -- -- -- 15
Raw hourly METARs
KHUT 020552Z AUTO 11008KT 10SM CLR 16/03 A3017 RMK AO2 SLP199 T01560033 10244 20144 402940117 51013
KHUT 020652Z AUTO 11008KT 10SM CLR 16/03 A3018 RMK AO2 SLP201 T01560028
KHUT 020752Z AUTO 11007KT 10SM CLR 14/03 A3019 RMK AO2 SLP206 T01390033
KHUT 020852Z AUTO 11006KT 10SM CLR 11/03 A3019 RMK AO2 SLP207 T01060033 51007
KHUT 020952Z AUTO 11005KT 10SM CLR 11/03 A3020 RMK AO2 SLP208 T01060033
KHUT 021052Z 11006KT 10SM CLR 10/03 A3021 RMK AO2 SLP215 T01000033
KHUT 021152Z 11006KT 10SM CLR 11/03 A3022 RMK AO2 SLP219 T01060033 10161 20094 53008
KHUT 021252Z 11004KT 10SM CLR 11/03 A3024 RMK AO2 SLP227 T01060033
KHUT 021352Z 13006KT 10SM CLR 14/04 A3025 RMK AO2 SLP228 T01440044
KHUT 021452Z 15006KT 10SM CLR 18/05 A3026 RMK AO2 SLP232 T01780050 52015 $
KHUT 021552Z 17007KT 10SM CLR 22/06 A3027 RMK AO2 SLP233 T02170056 $
KHUT 021652Z 17010KT 10SM CLR 25/04 A3027 RMK AO2 SLP233 T02500039 $
KHUT 021752Z 19008G15KT 10SM CLR 26/03 A3025 RMK AO2 SLP225 T02610033 10261 20106 58005 $



Page loaded:  18:41 UTC  |   11:41 AM Pacific  |   12:41 PM Mountain  |   01:41 PM Central  |   02:41 PM Eastern

 

ADVISORIES

FORECASTS

FORECASTS

OBSERVATIONS

USER TOOLS

ABOUT US